createdAt,value
2017-04-21T00:00:53.757Z,3.70
2017-04-21T00:01:54.365Z,3.63
2017-04-21T00:02:54.974Z,3.60
2017-04-21T00:03:55.561Z,3.64
2017-04-21T00:04:56.212Z,3.60
2017-04-21T00:05:56.813Z,3.63
2017-04-21T00:06:57.409Z,3.59
2017-04-21T00:07:58.014Z,3.64
2017-04-21T00:08:58.600Z,3.55
2017-04-21T00:09:59.191Z,3.54
2017-04-21T00:10:59.791Z,3.51
2017-04-21T00:12:00.385Z,3.49
2017-04-21T00:13:00.975Z,3.52
2017-04-21T00:14:01.576Z,3.48
2017-04-21T00:15:02.182Z,3.42
2017-04-21T00:16:02.773Z,3.49
2017-04-21T00:17:03.364Z,3.48
2017-04-21T00:18:03.958Z,3.37
2017-04-21T00:19:04.548Z,3.41
2017-04-21T00:20:05.148Z,3.32
2017-04-21T00:21:05.747Z,3.32
2017-04-21T00:22:06.338Z,3.26
2017-04-21T00:23:06.938Z,3.27
2017-04-21T00:24:07.544Z,3.29
2017-04-21T00:25:08.136Z,3.26
2017-04-21T00:26:08.742Z,3.23
2017-04-21T00:27:09.339Z,3.23
2017-04-21T00:28:09.948Z,3.20
2017-04-21T00:29:10.554Z,3.25
2017-04-21T00:30:11.230Z,3.20
2017-04-21T00:31:11.743Z,3.22
2017-04-21T00:32:12.341Z,3.26
2017-04-21T00:33:12.938Z,3.09
2017-04-21T00:34:13.544Z,3.12
2017-04-21T00:35:14.186Z,3.07
2017-04-21T00:36:14.811Z,3.12
2017-04-21T00:37:15.413Z,3.12
2017-04-21T00:38:16.012Z,3.02
2017-04-21T00:39:16.615Z,3.08
2017-04-21T00:40:17.258Z,3.01
2017-04-21T00:41:17.864Z,3.09
2017-04-21T00:42:18.462Z,3.01
2017-04-21T00:43:19.052Z,3.00
2017-04-21T00:44:19.645Z,3.02
2017-04-21T00:45:20.302Z,3.00
2017-04-21T00:46:20.889Z,2.96
2017-04-21T00:47:21.484Z,2.87
2017-04-21T00:48:22.088Z,2.93
2017-04-21T00:49:22.676Z,2.86
2017-04-21T00:50:23.265Z,2.84
2017-04-21T00:51:23.861Z,2.83
2017-04-21T00:52:24.449Z,2.87
2017-04-21T00:53:25.051Z,2.94
2017-04-21T00:54:25.655Z,2.79
2017-04-21T00:55:26.252Z,2.76
2017-04-21T00:56:26.858Z,2.83
2017-04-21T00:57:27.450Z,2.83
2017-04-21T00:58:28.051Z,2.86
2017-04-21T00:59:28.660Z,2.91
2017-04-21T01:00:29.260Z,2.79
2017-04-21T01:01:29.865Z,2.83
2017-04-21T01:02:30.467Z,2.78
2017-04-21T01:03:31.068Z,2.83
2017-04-21T01:04:31.673Z,2.83
2017-04-21T01:05:32.326Z,2.76
2017-04-21T01:06:32.935Z,2.83
2017-04-21T01:07:33.537Z,2.79
2017-04-21T01:08:34.142Z,2.79
2017-04-21T01:09:34.747Z,2.76
2017-04-21T01:10:35.340Z,2.79
2017-04-21T01:11:35.937Z,2.82
2017-04-21T01:12:36.524Z,2.83
2017-04-21T01:13:37.129Z,2.76
2017-04-21T01:14:37.735Z,2.82
2017-04-21T01:15:38.326Z,2.82
2017-04-21T01:16:38.925Z,2.83
2017-04-21T01:17:39.527Z,2.78
2017-04-21T01:18:40.131Z,2.90
2017-04-21T01:19:40.729Z,2.86
2017-04-21T01:20:41.329Z,2.82
2017-04-21T01:21:41.928Z,2.73
2017-04-21T01:22:42.532Z,2.84
2017-04-21T01:23:43.123Z,2.72
2017-04-21T01:24:43.727Z,2.66
2017-04-21T01:25:44.330Z,2.75
2017-04-21T01:26:44.933Z,2.64
2017-04-21T01:27:45.536Z,2.55
2017-04-21T01:28:46.127Z,2.60
2017-04-21T01:29:46.730Z,2.69
2017-04-21T01:30:47.336Z,2.66
2017-04-21T01:31:47.926Z,2.68
2017-04-21T01:32:48.516Z,2.72
2017-04-21T01:33:49.125Z,2.57
2017-04-21T01:34:49.732Z,2.65
2017-04-21T01:35:50.324Z,2.55
2017-04-21T01:36:50.912Z,2.53
2017-04-21T01:37:51.516Z,2.44
2017-04-21T01:38:52.124Z,2.46
2017-04-21T01:39:52.733Z,2.40
2017-04-21T01:40:53.340Z,2.42
2017-04-21T01:41:53.927Z,2.42
2017-04-21T01:42:54.527Z,2.46
2017-04-21T01:43:55.128Z,2.44
2017-04-21T01:44:55.729Z,2.39
2017-04-21T01:45:56.370Z,2.47
2017-04-21T01:46:56.973Z,2.44
2017-04-21T01:47:57.577Z,2.46
2017-04-21T01:48:58.172Z,2.50
2017-04-21T01:49:58.767Z,2.47
2017-04-21T01:50:59.359Z,2.48
2017-04-21T01:51:59.953Z,2.44
2017-04-21T01:53:00.555Z,2.50
2017-04-21T01:54:01.160Z,2.44
2017-04-21T01:55:01.763Z,2.46
2017-04-21T01:56:02.358Z,2.42
2017-04-21T01:57:02.965Z,2.33
2017-04-21T01:58:03.557Z,2.33
2017-04-21T01:59:04.150Z,2.29
2017-04-21T02:00:04.757Z,2.32
2017-04-21T02:01:05.347Z,2.33
2017-04-21T02:02:05.952Z,2.37
2017-04-21T02:03:06.559Z,2.26
2017-04-21T02:04:07.161Z,2.26
2017-04-21T02:05:07.753Z,2.30
2017-04-21T02:06:08.394Z,2.29
2017-04-21T02:07:08.998Z,2.19
2017-04-21T02:08:09.606Z,2.22
2017-04-21T02:09:10.209Z,2.18
2017-04-21T02:10:10.810Z,2.15
2017-04-21T02:11:11.458Z,2.21
2017-04-21T02:12:12.059Z,2.17
2017-04-21T02:13:12.662Z,2.14
2017-04-21T02:14:13.264Z,2.09
2017-04-21T02:15:13.865Z,2.07
2017-04-21T02:16:14.461Z,2.04
2017-04-21T02:17:15.062Z,2.04
2017-04-21T02:18:15.652Z,2.03
2017-04-21T02:19:16.249Z,2.03
2017-04-21T02:20:16.847Z,2.07
2017-04-21T02:21:17.439Z,2.01
2017-04-21T02:22:18.045Z,2.08
2017-04-21T02:23:18.651Z,2.03
2017-04-21T02:24:19.242Z,2.07
2017-04-21T02:25:19.832Z,2.03
2017-04-21T02:26:20.473Z,2.04
2017-04-21T02:27:21.062Z,2.07
2017-04-21T02:28:21.652Z,2.04
2017-04-21T02:29:22.257Z,2.11
2017-04-21T02:30:22.857Z,2.08
2017-04-21T02:31:23.464Z,2.11
2017-04-21T02:32:24.057Z,2.01
2017-04-21T02:33:24.662Z,2.08
2017-04-21T02:34:25.252Z,2.07
2017-04-21T02:35:25.899Z,2.09
2017-04-21T02:36:26.501Z,2.04
2017-04-21T02:37:27.112Z,2.03
2017-04-21T02:38:27.714Z,2.11
2017-04-21T02:39:28.318Z,2.21
2017-04-21T02:40:28.923Z,2.18
2017-04-21T02:41:29.528Z,2.29
2017-04-21T02:42:30.120Z,2.26
2017-04-21T02:43:30.726Z,2.33
2017-04-21T02:44:31.378Z,2.42
2017-04-21T02:45:31.974Z,2.53
2017-04-21T02:46:32.562Z,2.57
2017-04-21T02:47:33.160Z,2.72
2017-04-21T02:48:33.765Z,2.57
2017-04-21T02:49:34.353Z,2.68
2017-04-21T02:50:34.955Z,2.69
2017-04-21T02:51:35.558Z,2.71
2017-04-21T02:52:36.165Z,2.73
2017-04-21T02:53:36.767Z,2.75
2017-04-21T02:54:37.370Z,2.78
2017-04-21T02:55:37.972Z,2.76
2017-04-21T02:56:38.605Z,2.82
2017-04-21T02:57:39.180Z,2.91
2017-04-21T02:58:39.769Z,2.90
2017-04-21T02:59:40.476Z,2.97
2017-04-21T03:00:41.085Z,2.96
2017-04-21T03:01:41.683Z,3.00
2017-04-21T03:02:42.287Z,2.97
2017-04-21T03:03:42.890Z,2.94
2017-04-21T03:04:43.544Z,2.91
2017-04-21T03:05:44.145Z,2.97
2017-04-21T03:06:44.731Z,3.02
2017-04-21T03:07:45.325Z,3.12
2017-04-21T03:08:45.932Z,3.25
2017-04-21T03:09:46.536Z,3.25
2017-04-21T03:10:47.128Z,3.35
2017-04-21T03:11:47.718Z,3.32
2017-04-21T03:12:48.323Z,3.51
2017-04-21T03:13:48.929Z,3.49
2017-04-21T03:14:49.536Z,3.52
2017-04-21T03:15:50.126Z,3.49
2017-04-21T03:16:50.726Z,3.54
2017-04-21T03:17:51.330Z,3.69
2017-04-21T03:18:51.935Z,3.60
2017-04-21T03:19:52.573Z,3.78
2017-04-21T03:20:53.164Z,3.78
2017-04-21T03:21:53.765Z,3.77
2017-04-21T03:22:54.366Z,3.81
2017-04-21T03:23:54.964Z,3.77
2017-04-21T03:24:55.618Z,3.88
2017-04-21T03:25:56.222Z,3.93
2017-04-21T03:26:56.821Z,3.88
2017-04-21T03:27:57.427Z,3.93
2017-04-21T03:28:58.023Z,3.85
2017-04-21T03:29:58.673Z,3.99
2017-04-21T03:30:59.266Z,3.95
2017-04-21T03:31:59.859Z,4.08
2017-04-21T03:33:00.462Z,4.09
2017-04-21T03:34:01.055Z,4.10
2017-04-21T03:35:01.659Z,4.13
2017-04-21T03:36:02.266Z,4.16
2017-04-21T03:37:02.874Z,4.16
2017-04-21T03:38:03.476Z,4.31
2017-04-21T03:39:04.086Z,4.31
2017-04-21T03:40:04.729Z,4.34
2017-04-21T03:41:05.334Z,4.38
2017-04-21T03:42:05.924Z,4.36
2017-04-21T03:43:06.529Z,4.41
2017-04-21T03:44:07.129Z,4.41
2017-04-21T03:45:07.773Z,4.48
2017-04-21T03:46:08.373Z,4.44
2017-04-21T03:47:08.966Z,4.56
2017-04-21T03:48:09.560Z,4.57
2017-04-21T03:49:10.157Z,4.62
2017-04-21T03:50:10.810Z,4.62
2017-04-21T03:51:11.416Z,4.68
2017-04-21T03:52:12.007Z,4.74
2017-04-21T03:53:12.610Z,4.80
2017-04-21T03:54:13.212Z,4.83
2017-04-21T03:55:13.806Z,4.82
2017-04-21T03:56:14.397Z,4.85
2017-04-21T03:57:14.987Z,4.93
2017-04-21T03:58:15.582Z,4.90
2017-04-21T03:59:16.180Z,4.94
2017-04-21T04:00:16.783Z,5.01
2017-04-21T04:01:17.370Z,5.04
2017-04-21T04:02:17.979Z,5.04
2017-04-21T04:03:18.586Z,5.07
2017-04-21T04:04:19.176Z,5.16
2017-04-21T04:05:19.823Z,5.18
2017-04-21T04:06:20.433Z,5.19
2017-04-21T04:07:21.028Z,5.19
2017-04-21T04:08:21.638Z,5.22
2017-04-21T04:09:22.250Z,5.26
2017-04-21T04:10:22.906Z,5.30
2017-04-21T04:11:23.505Z,5.39
2017-04-21T04:12:24.111Z,5.37
2017-04-21T04:13:24.705Z,5.32
2017-04-21T04:14:25.309Z,5.34
2017-04-21T04:15:25.956Z,5.34
2017-04-21T04:16:26.554Z,5.36
2017-04-21T04:17:27.162Z,5.40
2017-04-21T04:18:27.767Z,5.40
2017-04-21T04:19:28.380Z,5.34
2017-04-21T04:20:28.984Z,5.39
2017-04-21T04:21:29.577Z,5.48
2017-04-21T04:22:30.181Z,5.47
2017-04-21T04:23:30.777Z,5.48
2017-04-21T04:24:31.385Z,5.42
2017-04-21T04:25:32.035Z,5.55
2017-04-21T04:26:32.644Z,5.57
2017-04-21T04:27:33.253Z,5.55
2017-04-21T04:28:33.849Z,5.61
2017-04-21T04:29:34.453Z,5.55
2017-04-21T04:30:35.114Z,5.65
2017-04-21T04:31:35.729Z,5.61
2017-04-21T04:32:36.340Z,5.63
2017-04-21T04:33:36.949Z,5.54
2017-04-21T04:34:37.555Z,5.58
2017-04-21T04:35:38.169Z,5.48
2017-04-21T04:36:38.777Z,5.57
2017-04-21T04:37:39.382Z,5.61
2017-04-21T04:38:39.992Z,5.55
2017-04-21T04:39:40.600Z,5.48
2017-04-21T04:40:41.212Z,5.58
2017-04-21T04:41:41.825Z,5.63
2017-04-21T04:42:42.423Z,5.61
2017-04-21T04:43:43.020Z,5.69
2017-04-21T04:44:43.631Z,5.70
2017-04-21T04:45:44.287Z,5.72
2017-04-21T04:46:44.892Z,5.83
2017-04-21T04:47:45.501Z,5.84
2017-04-21T04:48:46.102Z,5.84
2017-04-21T04:49:46.697Z,5.91
2017-04-21T04:50:47.309Z,5.96
2017-04-21T04:51:47.917Z,6.01
2017-04-21T04:52:48.531Z,5.97
2017-04-21T04:53:49.134Z,6.01
2017-04-21T04:54:49.728Z,5.94
2017-04-21T04:55:50.383Z,6.01
2017-04-21T04:56:50.985Z,6.04
2017-04-21T04:57:51.582Z,6.04
2017-04-21T04:58:52.180Z,5.99
2017-04-21T04:59:52.790Z,6.05
2017-04-21T05:00:53.407Z,6.05
2017-04-21T05:01:54.002Z,6.11
2017-04-21T05:02:54.603Z,6.16
2017-04-21T05:03:55.211Z,6.09
2017-04-21T05:04:55.804Z,6.12
2017-04-21T05:05:56.457Z,6.13
2017-04-21T05:06:57.069Z,6.09
2017-04-21T05:07:57.683Z,6.13
2017-04-21T05:08:58.291Z,6.27
2017-04-21T05:09:58.904Z,6.30
2017-04-21T05:10:59.552Z,6.32
2017-04-21T05:12:00.164Z,6.31
2017-04-21T05:13:00.761Z,6.35
2017-04-21T05:14:01.359Z,6.39
2017-04-21T05:15:01.957Z,6.42
2017-04-21T05:16:02.613Z,6.43
2017-04-21T05:17:03.212Z,6.48
2017-04-21T05:18:03.826Z,6.45
2017-04-21T05:19:04.440Z,6.50
2017-04-21T05:20:05.051Z,6.42
2017-04-21T05:21:05.709Z,6.45
2017-04-21T05:22:06.307Z,6.49
2017-04-21T05:23:06.902Z,6.60
2017-04-21T05:24:07.499Z,6.53
2017-04-21T05:25:08.113Z,6.63
2017-04-21T05:26:08.756Z,6.58
2017-04-21T05:27:09.358Z,6.52
2017-04-21T05:28:09.966Z,6.68
2017-04-21T05:29:10.564Z,6.67
2017-04-21T05:30:11.167Z,6.57
2017-04-21T05:31:11.823Z,6.71
2017-04-21T05:32:12.427Z,6.66
2017-04-21T05:33:13.041Z,6.68
2017-04-21T05:34:13.678Z,6.61
2017-04-21T05:35:14.267Z,6.79
2017-04-21T05:36:14.930Z,6.66
2017-04-21T05:37:15.541Z,6.73
2017-04-21T05:38:16.144Z,6.70
2017-04-21T05:39:16.753Z,6.85
2017-04-21T05:40:17.352Z,6.85
2017-04-21T05:41:18.014Z,6.84
2017-04-21T05:42:18.625Z,6.96
2017-04-21T05:43:19.233Z,6.89
2017-04-21T05:44:19.830Z,7.00
2017-04-21T05:45:20.442Z,6.92
2017-04-21T05:46:21.055Z,7.03
2017-04-21T05:47:21.666Z,7.02
2017-04-21T05:48:22.283Z,7.06
2017-04-21T05:49:22.887Z,7.14
2017-04-21T05:50:23.485Z,7.18
2017-04-21T05:51:24.095Z,7.14
2017-04-21T05:52:24.709Z,7.24
2017-04-21T05:53:25.320Z,7.22
2017-04-21T05:54:25.935Z,7.28
2017-04-21T05:55:26.543Z,7.21
2017-04-21T05:56:27.151Z,7.27
2017-04-21T05:57:27.750Z,7.24
2017-04-21T05:58:28.363Z,7.29
2017-04-21T05:59:28.988Z,7.33
2017-04-21T06:00:29.647Z,7.40
2017-04-21T06:01:30.264Z,7.32
2017-04-21T06:02:30.871Z,7.35
2017-04-21T06:03:31.480Z,7.36
2017-04-21T06:04:32.089Z,7.39
2017-04-21T06:05:32.706Z,7.40
2017-04-21T06:06:33.301Z,7.39
2017-04-21T06:07:33.901Z,7.40
2017-04-21T06:08:34.518Z,7.40
2017-04-21T06:09:35.116Z,7.39
2017-04-21T06:10:35.775Z,7.43
2017-04-21T06:11:36.384Z,7.50
2017-04-21T06:12:36.995Z,7.45
2017-04-21T06:13:37.590Z,7.50
2017-04-21T06:14:38.198Z,7.47
2017-04-21T06:15:38.810Z,7.57
2017-04-21T06:16:39.432Z,7.63
2017-04-21T06:17:40.055Z,7.72
2017-04-21T06:18:40.663Z,7.63
2017-04-21T06:19:41.262Z,7.76
2017-04-21T06:20:41.861Z,7.74
2017-04-21T06:21:42.470Z,7.80
2017-04-21T06:22:43.073Z,7.79
2017-04-21T06:23:43.667Z,7.69
2017-04-21T06:24:44.326Z,7.77
2017-04-21T06:25:44.933Z,7.80
2017-04-21T06:26:45.544Z,7.84
2017-04-21T06:27:46.144Z,7.84
2017-04-21T06:28:46.752Z,7.86
2017-04-21T06:29:47.417Z,7.83
2017-04-21T06:30:48.028Z,7.95
2017-04-21T06:31:48.629Z,8.01
2017-04-21T06:32:49.246Z,7.91
2017-04-21T06:33:49.864Z,8.01
2017-04-21T06:34:50.467Z,8.02
2017-04-21T06:35:51.077Z,8.06
2017-04-21T06:36:51.679Z,8.13
2017-04-21T06:37:52.278Z,8.10
2017-04-21T06:38:52.884Z,8.20
2017-04-21T06:39:53.487Z,8.10
2017-04-21T06:40:54.096Z,8.17
2017-04-21T06:41:54.701Z,8.17
2017-04-21T06:42:55.309Z,8.25
2017-04-21T06:43:55.908Z,8.35
2017-04-21T06:44:56.573Z,8.27
2017-04-21T06:45:57.195Z,8.34
2017-04-21T06:46:57.810Z,8.50
2017-04-21T06:47:58.418Z,8.48
2017-04-21T06:48:59.030Z,8.46
2017-04-21T06:49:59.680Z,8.45
2017-04-21T06:51:00.293Z,8.50
2017-04-21T06:52:00.896Z,8.55
2017-04-21T06:53:01.510Z,8.59
2017-04-21T06:54:02.122Z,8.63
2017-04-21T06:55:02.772Z,8.63
2017-04-21T06:56:03.383Z,8.64
2017-04-21T06:57:03.999Z,8.67
2017-04-21T06:58:04.606Z,8.68
2017-04-21T06:59:05.221Z,8.76
2017-04-21T07:00:05.838Z,8.81
2017-04-21T07:01:06.453Z,8.82
2017-04-21T07:02:07.059Z,8.96
2017-04-21T07:03:07.651Z,8.98
2017-04-21T07:04:08.260Z,8.92
2017-04-21T07:05:08.912Z,9.00
2017-04-21T07:06:09.513Z,9.01
2017-04-21T07:07:10.113Z,9.03
2017-04-21T07:08:10.728Z,9.03
2017-04-21T07:09:11.341Z,9.15
2017-04-21T07:10:11.955Z,9.12
2017-04-21T07:11:12.570Z,9.12
2017-04-21T07:12:13.185Z,9.23
2017-04-21T07:13:13.796Z,9.29
2017-04-21T07:14:14.402Z,9.43
2017-04-21T07:15:15.015Z,9.38
2017-04-21T07:16:15.628Z,9.36
2017-04-21T07:17:16.241Z,9.58
2017-04-21T07:18:16.859Z,9.47
2017-04-21T07:19:17.472Z,9.45
2017-04-21T07:20:18.134Z,9.61
2017-04-21T07:21:18.748Z,9.59
2017-04-21T07:22:19.362Z,9.58
2017-04-21T07:23:19.966Z,9.59
2017-04-21T07:24:20.580Z,9.65
2017-04-21T07:25:21.232Z,9.61
2017-04-21T07:26:21.834Z,9.63
2017-04-21T07:27:22.445Z,9.69
2017-04-21T07:28:23.049Z,9.66
2017-04-21T07:29:23.649Z,9.69
2017-04-21T07:30:24.291Z,9.79
2017-04-21T07:31:24.908Z,9.74
2017-04-21T07:32:25.521Z,9.80
2017-04-21T07:33:26.137Z,9.86
2017-04-21T07:34:26.756Z,9.90
2017-04-21T07:35:27.425Z,9.80
2017-04-21T07:36:28.025Z,9.86
2017-04-21T07:37:28.623Z,9.91
2017-04-21T07:38:29.226Z,9.88
2017-04-21T07:39:29.829Z,9.90
2017-04-21T07:40:30.435Z,9.90
2017-04-21T07:41:31.045Z,10.13
2017-04-21T07:42:31.659Z,10.04
2017-04-21T07:43:32.285Z,10.16
2017-04-21T07:44:32.901Z,10.17
2017-04-21T07:45:33.504Z,10.20
2017-04-21T07:46:34.120Z,10.19
2017-04-21T07:47:34.736Z,10.26
2017-04-21T07:48:35.344Z,10.16
2017-04-21T07:49:35.958Z,10.31
2017-04-21T07:50:36.624Z,10.35
2017-04-21T07:51:37.231Z,10.35
2017-04-21T07:52:37.834Z,10.34
2017-04-21T07:53:38.449Z,10.31
2017-04-21T07:54:39.060Z,10.37
2017-04-21T07:55:39.672Z,10.44
2017-04-21T07:56:40.275Z,10.53
2017-04-21T07:57:40.884Z,10.49
2017-04-21T07:58:41.502Z,10.54
2017-04-21T07:59:42.106Z,10.51
2017-04-21T08:00:42.771Z,10.54
2017-04-21T08:01:43.387Z,10.45
2017-04-21T08:02:43.988Z,10.51
2017-04-21T08:03:44.604Z,10.58
2017-04-21T08:04:45.227Z,10.56
2017-04-21T08:05:45.895Z,10.57
2017-04-21T08:06:46.499Z,10.61
2017-04-21T08:07:47.111Z,10.69
2017-04-21T08:08:47.733Z,10.64
2017-04-21T08:09:48.334Z,10.63
2017-04-21T08:10:48.947Z,10.66
2017-04-21T08:11:49.567Z,10.71
2017-04-21T08:12:50.174Z,10.57
2017-04-21T08:13:50.793Z,10.66
2017-04-21T08:14:51.413Z,10.60
2017-04-21T08:15:52.182Z,10.57
2017-04-21T08:16:52.700Z,10.53
2017-04-21T08:17:53.317Z,10.53
2017-04-21T08:18:53.930Z,10.69
2017-04-21T08:19:54.543Z,10.67
2017-04-21T08:20:55.150Z,10.76
2017-04-21T08:21:55.775Z,10.81
2017-04-21T08:22:56.398Z,10.89
2017-04-21T08:23:57.003Z,10.85
2017-04-21T08:24:57.624Z,10.91
2017-04-21T08:25:58.230Z,10.97
2017-04-21T08:26:58.897Z,11.00
2017-04-21T08:27:59.461Z,11.04
2017-04-21T08:29:00.078Z,11.07
2017-04-21T08:30:00.682Z,11.14
2017-04-21T08:31:01.339Z,11.16
2017-04-21T08:32:01.945Z,11.21
2017-04-21T08:33:02.551Z,11.26
2017-04-21T08:34:03.174Z,11.30
2017-04-21T08:35:03.851Z,11.24
2017-04-21T08:36:04.523Z,11.14
2017-04-21T08:37:05.143Z,11.14
2017-04-21T08:38:05.755Z,11.18
2017-04-21T08:39:06.355Z,11.21
2017-04-21T08:40:06.972Z,11.29
2017-04-21T08:41:07.639Z,11.33
2017-04-21T08:42:08.265Z,11.26
2017-04-21T08:43:08.879Z,11.30
2017-04-21T08:44:09.496Z,11.29
2017-04-21T08:45:10.118Z,11.44
2017-04-21T08:46:10.778Z,11.44
2017-04-21T08:47:11.392Z,11.45
2017-04-21T08:48:12.000Z,11.44
2017-04-21T08:49:12.626Z,11.40
2017-04-21T08:50:13.237Z,11.44
2017-04-21T08:51:13.905Z,11.42
2017-04-21T08:52:14.511Z,11.30
2017-04-21T08:53:15.116Z,11.29
2017-04-21T08:54:15.737Z,11.32
2017-04-21T08:55:16.356Z,11.44
2017-04-21T08:56:16.956Z,11.33
2017-04-21T08:57:17.561Z,11.29
2017-04-21T08:58:18.169Z,11.29
2017-04-21T08:59:18.790Z,11.45
2017-04-21T09:00:19.412Z,11.45
2017-04-21T09:01:20.027Z,11.47
2017-04-21T09:02:20.635Z,11.36
2017-04-21T09:03:21.254Z,11.39
2017-04-21T09:04:21.856Z,11.48
2017-04-21T09:05:22.517Z,11.42
2017-04-21T09:06:23.134Z,11.33
2017-04-21T09:07:23.753Z,11.30
2017-04-21T09:08:24.370Z,11.27
2017-04-21T09:09:24.989Z,11.26
2017-04-21T09:10:25.605Z,11.40
2017-04-21T09:11:26.224Z,11.24
2017-04-21T09:12:26.844Z,11.16
2017-04-21T09:13:27.459Z,11.21
2017-04-21T09:14:28.077Z,11.16
2017-04-21T09:15:28.729Z,11.29
2017-04-21T09:16:29.346Z,11.22
2017-04-21T09:17:29.954Z,11.30
2017-04-21T09:18:30.570Z,11.27
2017-04-21T09:19:31.174Z,11.42
2017-04-21T09:20:31.846Z,11.29
2017-04-21T09:21:32.461Z,11.37
2017-04-21T09:22:33.230Z,11.34
2017-04-21T09:23:33.832Z,11.27
2017-04-21T09:24:34.447Z,11.26
2017-04-21T09:25:35.051Z,11.27
2017-04-21T09:26:35.669Z,11.22
2017-04-21T09:27:36.275Z,11.30
2017-04-21T09:28:36.894Z,11.29
2017-04-21T09:29:37.635Z,11.26
2017-04-21T09:30:38.257Z,11.30
2017-04-21T09:31:39.853Z,11.26
2017-04-21T09:32:40.462Z,11.33
2017-04-21T09:33:42.058Z,11.37
2017-04-21T09:34:43.657Z,11.44
2017-04-21T09:36:17.884Z,11.52
2017-04-21T09:36:46.854Z,11.52
2017-04-21T09:37:47.484Z,11.54
2017-04-21T09:38:49.079Z,11.59
2017-04-21T09:39:49.692Z,11.72
2017-04-21T09:40:50.295Z,11.81
2017-04-21T09:41:50.915Z,11.84
2017-04-21T09:43:03.870Z,11.96
2017-04-21T09:43:53.124Z,11.98
2017-04-21T09:44:53.744Z,12.19
2017-04-21T09:45:54.356Z,12.27
2017-04-21T09:46:54.971Z,12.42
2017-04-21T09:47:55.590Z,12.53
2017-04-21T09:48:56.204Z,12.72
2017-04-21T09:49:56.823Z,12.86
2017-04-21T09:50:57.604Z,12.97
2017-04-21T09:53:34.119Z,13.18
2017-04-21T09:53:46.297Z,13.10
2017-04-21T09:54:01.418Z,13.36
2017-04-21T09:57:06.052Z,13.39
2017-04-21T09:57:26.029Z,13.38
2017-04-21T09:57:36.149Z,13.38
2017-04-21T10:01:22.008Z,13.41
2017-04-21T10:04:00.322Z,13.38
2017-04-21T10:05:03.879Z,13.93
2017-04-21T10:05:11.599Z,13.72
2017-04-21T10:06:19.760Z,13.52
2017-04-21T10:07:40.482Z,14.52
2017-04-21T10:07:53.001Z,13.86
2017-04-21T10:07:56.695Z,14.32
2017-04-21T10:07:57.253Z,14.23
2017-04-21T10:08:22.019Z,14.08
2017-04-21T10:08:23.842Z,14.81
2017-04-21T10:09:25.441Z,15.19
2017-04-21T10:10:26.060Z,15.09
2017-04-21T10:11:26.719Z,15.21
2017-04-21T10:12:27.340Z,15.18
2017-04-21T10:13:27.949Z,15.25
2017-04-21T10:14:28.568Z,15.31
2017-04-21T10:15:29.175Z,15.39
2017-04-21T10:16:29.848Z,15.39
2017-04-21T10:17:30.468Z,15.28
2017-04-21T10:18:31.093Z,15.18
2017-04-21T10:19:31.703Z,15.13
2017-04-21T10:20:32.322Z,15.14
2017-04-21T10:21:32.944Z,15.04
2017-04-21T10:22:33.552Z,15.09
2017-04-21T10:23:34.183Z,15.06
2017-04-21T10:24:34.791Z,15.07
2017-04-21T10:25:35.410Z,15.11
2017-04-21T10:26:36.069Z,14.99
2017-04-21T10:27:36.687Z,14.88
2017-04-21T10:28:37.306Z,14.91
2017-04-21T10:29:37.925Z,14.91
2017-04-21T10:30:38.544Z,15.04
2017-04-21T10:31:39.162Z,15.11
2017-04-21T10:32:39.792Z,15.07
2017-04-21T10:33:40.413Z,15.07
2017-04-21T10:34:41.023Z,14.95
2017-04-21T10:35:41.648Z,15.01
2017-04-21T10:36:42.324Z,15.10
2017-04-21T10:37:42.942Z,15.25
2017-04-21T10:38:43.565Z,15.22
2017-04-21T10:39:44.469Z,15.24
2017-04-21T10:40:45.086Z,15.50
2017-04-21T10:41:45.746Z,15.67
2017-04-21T10:42:46.367Z,15.68
2017-04-21T10:43:46.972Z,15.71
2017-04-21T10:44:47.582Z,15.91
2017-04-21T10:45:48.191Z,15.89
2017-04-21T10:46:48.796Z,15.82
2017-04-21T10:47:49.413Z,15.98
2017-04-21T10:48:50.031Z,15.79
2017-04-21T10:49:50.650Z,15.80
2017-04-21T10:50:51.474Z,15.80
2017-04-21T10:51:52.149Z,15.83
2017-04-21T10:52:52.769Z,15.65
2017-04-21T10:53:53.391Z,15.61
2017-04-21T10:54:54.010Z,15.59
2017-04-21T10:55:54.627Z,15.49
2017-04-21T10:56:55.243Z,15.47
2017-04-21T10:57:55.859Z,15.44
2017-04-21T10:58:56.484Z,15.55
2017-04-21T10:59:57.096Z,15.82
2017-04-21T11:00:57.705Z,15.95
2017-04-21T11:01:58.325Z,15.98
2017-04-21T11:02:58.948Z,15.99
2017-04-21T11:03:59.564Z,15.99
2017-04-21T11:05:00.177Z,15.91
2017-04-21T11:06:00.790Z,16.05
2017-04-21T11:07:01.465Z,16.10
2017-04-21T11:08:02.078Z,16.21
2017-04-21T11:09:02.694Z,16.23
2017-04-21T11:10:03.324Z,16.51
2017-04-21T11:11:03.932Z,16.46
2017-04-21T11:12:04.598Z,16.45
2017-04-21T11:13:05.209Z,16.53
2017-04-21T11:14:05.828Z,16.56
2017-04-21T11:15:06.443Z,16.75
2017-04-21T11:16:07.056Z,16.94
2017-04-21T11:17:07.736Z,17.15
2017-04-21T11:18:08.367Z,17.15
2017-04-21T11:19:08.985Z,17.15
2017-04-21T11:20:09.605Z,17.15
2017-04-21T11:21:10.219Z,17.14
2017-04-21T11:22:10.895Z,17.29
2017-04-21T11:23:11.529Z,17.30
2017-04-21T11:24:12.141Z,17.15
2017-04-21T11:25:12.769Z,17.16
2017-04-21T11:26:13.382Z,17.27
2017-04-21T11:27:14.007Z,17.04
2017-04-21T11:28:14.636Z,17.21
2017-04-21T11:29:15.244Z,17.09
2017-04-21T11:30:15.859Z,17.31
2017-04-21T11:31:16.486Z,17.30
2017-04-21T11:32:17.150Z,17.37
2017-04-21T11:33:17.768Z,17.30
2017-04-21T11:34:18.393Z,17.30
2017-04-21T11:35:19.025Z,17.44
2017-04-21T11:36:19.651Z,17.65
2017-04-21T11:37:20.263Z,17.82
2017-04-21T11:38:20.876Z,17.83
2017-04-21T11:39:21.501Z,17.93
2017-04-21T11:40:22.121Z,17.85
2017-04-21T11:41:22.748Z,18.11
2017-04-21T11:42:23.416Z,18.37
2017-04-21T11:43:24.048Z,18.44
2017-04-21T11:44:24.665Z,18.40
2017-04-21T11:45:25.284Z,18.43
2017-04-21T11:46:25.894Z,18.58
2017-04-21T11:47:26.515Z,18.48
2017-04-21T11:48:27.225Z,18.40
2017-04-21T11:49:27.853Z,18.48
2017-04-21T11:50:28.603Z,18.55
2017-04-21T11:51:29.225Z,18.59
2017-04-21T11:52:29.837Z,18.65
2017-04-21T11:53:30.447Z,18.51
2017-04-21T11:54:31.075Z,18.55
2017-04-21T11:55:31.696Z,18.51
2017-04-21T11:56:32.321Z,18.12
2017-04-21T11:57:32.994Z,18.19
2017-04-21T11:58:33.614Z,18.51
2017-04-21T11:59:34.239Z,18.48
2017-04-21T12:00:34.869Z,18.63
2017-04-21T12:01:35.498Z,18.66
2017-04-21T12:02:36.112Z,18.59
2017-04-21T12:03:36.730Z,18.55
2017-04-21T12:04:37.350Z,18.85
2017-04-21T12:05:37.981Z,19.07
2017-04-21T12:06:38.600Z,19.33
2017-04-21T12:07:39.220Z,19.47
2017-04-21T12:08:39.832Z,19.58
2017-04-21T12:09:40.455Z,19.69
2017-04-21T12:10:41.079Z,19.91
2017-04-21T12:11:41.699Z,20.31
2017-04-21T12:12:42.306Z,20.32
2017-04-21T12:13:42.928Z,20.22
2017-04-21T12:14:43.555Z,20.03
2017-04-21T12:15:44.168Z,20.03
2017-04-21T12:16:44.984Z,20.28
2017-04-21T12:17:45.603Z,20.19
2017-04-21T12:18:46.224Z,20.09
2017-04-21T12:19:46.854Z,19.98
2017-04-21T12:20:47.482Z,20.11
2017-04-21T12:21:48.111Z,20.09
2017-04-21T12:22:48.738Z,20.14
2017-04-21T12:23:49.370Z,20.02
2017-04-21T12:24:50.000Z,19.92
2017-04-21T12:25:50.624Z,20.06
2017-04-21T12:26:51.244Z,20.32
2017-04-21T12:27:51.870Z,20.36
2017-04-21T12:28:52.615Z,20.35
2017-04-21T12:29:53.239Z,20.51
2017-04-21T12:30:53.917Z,20.35
2017-04-21T12:31:54.526Z,20.32
2017-04-21T12:32:55.153Z,20.16
2017-04-21T12:33:55.772Z,19.91
2017-04-21T12:34:56.400Z,19.69
2017-04-21T12:35:57.076Z,19.80
2017-04-21T12:36:57.703Z,19.81
2017-04-21T12:37:58.322Z,19.69
2017-04-21T12:38:58.936Z,19.59
2017-04-21T12:39:59.563Z,19.43
2017-04-21T12:41:00.198Z,19.61
2017-04-21T12:42:00.807Z,19.58
2017-04-21T12:43:01.433Z,19.48
2017-04-21T12:44:02.048Z,19.58
2017-04-21T12:45:02.674Z,19.79
2017-04-21T12:46:03.297Z,19.67
2017-04-21T12:47:03.929Z,19.73
2017-04-21T12:48:04.555Z,19.80
2017-04-21T12:49:05.167Z,19.98
2017-04-21T12:50:05.798Z,19.99
2017-04-21T12:51:06.418Z,20.02
2017-04-21T12:52:07.032Z,19.92
2017-04-21T12:53:07.660Z,19.73
2017-04-21T12:54:08.276Z,19.61
2017-04-21T12:55:08.950Z,19.55
2017-04-21T12:56:09.572Z,19.70
2017-04-21T12:57:10.192Z,19.71
2017-04-21T12:58:10.816Z,19.56
2017-04-21T12:59:11.433Z,19.74
2017-04-21T13:00:12.099Z,19.73
2017-04-21T13:01:12.726Z,19.69
2017-04-21T13:02:13.336Z,19.88
2017-04-21T13:03:13.948Z,20.03
2017-04-21T13:04:14.570Z,19.84
2017-04-21T13:05:15.195Z,19.92
2017-04-21T13:06:15.823Z,20.13
2017-04-21T13:07:16.450Z,20.10
2017-04-21T13:08:17.071Z,19.98
2017-04-21T13:09:17.689Z,20.11
2017-04-21T13:10:18.368Z,20.21
2017-04-21T13:11:18.984Z,20.07
2017-04-21T13:12:19.615Z,20.04
2017-04-21T13:13:20.228Z,20.07
2017-04-21T13:14:20.853Z,20.14
2017-04-21T13:15:21.528Z,20.50
2017-04-21T13:16:22.161Z,20.69